Time;durP1;ratioP1;P1;durP2;ratioP2;P2;SDS_P1;SDS_P2;PMS_P1;PMS_P2;Temp;Humidity;BMP_temperature;BMP_pressure;BME280_temperature;BME280_humidity;BME280_pressure;Samples;Min_cycle;Max_cycle;Signal;HPM_P1;HPM_P2
2021/12/27 00:01:56;;;;;;;1.92;1.70;;;4.90;40.10;;;;;;5013766;28;20034;-80
2021/12/27 00:04:22;;;;;;;2.75;2.00;;;4.90;40.10;;;;;;5010562;28;20083;-81
2021/12/27 00:06:48;;;;;;;1.73;1.45;;;5.00;40.10;;;;;;4995427;28;20150;-81
2021/12/27 00:09:14;;;;;;;2.55;1.80;;;5.00;40.20;;;;;;4994429;28;20467;-81
2021/12/27 00:11:40;;;;;;;2.50;1.80;;;5.00;40.20;;;;;;5010504;28;20539;-81
2021/12/27 00:14:06;;;;;;;3.35;1.90;;;4.90;40.10;;;;;;4999852;28;20033;-81
2021/12/27 00:16:32;;;;;;;3.80;2.00;;;4.90;40.00;;;;;;4995268;28;20119;-81
2021/12/27 00:18:58;;;;;;;2.25;1.60;;;4.80;40.00;;;;;;5012991;28;20329;-81
2021/12/27 00:21:23;;;;;;;2.85;1.90;;;4.90;39.90;;;;;;5012775;28;20036;-81
2021/12/27 00:23:49;;;;;;;2.95;1.92;;;4.90;39.90;;;;;;4996846;28;20412;-81
2021/12/27 00:26:15;;;;;;;2.97;2.00;;;4.90;40.00;;;;;;5015900;28;20042;-81
2021/12/27 00:28:41;;;;;;;2.15;1.75;;;4.90;39.80;;;;;;4998728;28;20040;-81
2021/12/27 00:31:08;;;;;;;2.50;1.85;;;4.90;39.70;;;;;;4981971;28;20104;-80
2021/12/27 00:33:33;;;;;;;3.28;2.30;;;4.90;39.70;;;;;;5011389;28;20619;-80
2021/12/27 00:35:59;;;;;;;2.80;2.00;;;4.90;39.50;;;;;;4994832;28;20030;-81
2021/12/27 00:38:26;;;;;;;3.65;2.10;;;4.90;39.50;;;;;;4999690;28;20056;-81
2021/12/27 00:40:52;;;;;;;2.90;1.92;;;4.90;39.40;;;;;;5012347;28;20072;-82
2021/12/27 00:43:18;;;;;;;3.08;2.03;;;4.90;39.40;;;;;;4996976;28;20592;-82
2021/12/27 00:45:44;;;;;;;2.63;1.80;;;4.90;39.50;;;;;;4980238;28;20397;-83
2021/12/27 00:48:10;;;;;;;2.42;1.90;;;4.90;39.40;;;;;;5010642;28;20034;-82
2021/12/27 00:50:36;;;;;;;3.13;1.95;;;4.80;39.40;;;;;;4979583;28;20038;-82
2021/12/27 00:53:02;;;;;;;4.78;2.45;;;4.80;39.60;;;;;;4997245;28;20044;-81
2021/12/27 00:55:28;;;;;;;2.72;1.77;;;4.80;39.40;;;;;;5014772;28;20144;-81
2021/12/27 00:57:54;;;;;;;2.28;2.00;;;4.80;39.60;;;;;;5013862;28;20450;-80
2021/12/27 01:00:23;;;;;;;2.70;2.10;;;4.80;39.50;;;;;;5011337;28;20082;-80
2021/12/27 01:02:49;;;;;;;2.40;1.85;;;4.70;39.40;;;;;;4995804;28;20038;-80
2021/12/27 01:05:16;;;;;;;2.47;2.00;;;4.70;39.40;;;;;;5011012;28;20054;-82
2021/12/27 01:07:43;;;;;;;3.53;2.10;;;4.70;39.60;;;;;;5010409;28;20034;-81
2021/12/27 01:10:33;;;;;;;4.20;2.10;;;4.80;39.40;;;;;;4993848;28;20128;-81
2021/12/27 01:15:47;;;;;;;2.85;2.00;;;4.90;39.40;;;;;;5011521;28;20038;-82
2021/12/27 01:18:14;;;;;;;2.17;1.77;;;4.90;39.40;;;;;;4995042;28;20060;-81
2021/12/27 01:20:40;;;;;;;3.58;2.25;;;4.80;39.30;;;;;;4995919;28;20336;-82
2021/12/27 01:23:06;;;;;;;2.13;1.85;;;4.80;39.30;;;;;;4977816;28;20065;-82
2021/12/27 01:25:32;;;;;;;2.15;1.92;;;4.80;39.30;;;;;;5014268;28;20424;-81
2021/12/27 01:27:58;;;;;;;3.70;2.20;;;4.90;39.40;;;;;;5010582;28;20314;-81
2021/12/27 01:30:24;;;;;;;3.63;2.35;;;4.80;39.30;;;;;;4995352;28;20033;-81
2021/12/27 01:32:55;;;;;;;3.15;2.00;;;4.80;39.30;;;;;;4981769;28;20126;-82
2021/12/27 01:35:22;;;;;;;3.05;2.00;;;4.80;39.30;;;;;;4993649;28;20029;-82
2021/12/27 01:37:51;;;;;;;2.50;2.20;;;4.80;39.40;;;;;;4994973;28;20240;-81
2021/12/27 01:40:26;;;;;;;2.65;2.08;;;4.80;39.40;;;;;;4998030;28;20061;-81
2021/12/27 01:43:19;;;;;;;2.53;2.10;;;4.80;39.50;;;;;;4982707;28;20084;-81
2021/12/27 01:45:49;;;;;;;3.58;2.60;;;4.80;39.50;;;;;;5010981;28;20285;-82
2021/12/27 01:48:20;;;;;;;3.22;2.30;;;4.70;39.40;;;;;;4995617;28;20124;-81
2021/12/27 01:50:47;;;;;;;2.33;2.10;;;4.80;39.50;;;;;;4998367;28;20480;-83
2021/12/27 01:53:14;;;;;;;2.92;2.10;;;4.80;39.50;;;;;;4997503;28;20022;-83
2021/12/27 01:55:40;;;;;;;3.15;2.40;;;4.80;39.30;;;;;;4998559;28;20057;-81
2021/12/27 01:58:07;;;;;;;2.90;2.55;;;4.90;39.40;;;;;;4996969;28;20059;-81
2021/12/27 02:00:34;;;;;;;3.20;2.28;;;4.90;39.40;;;;;;4986771;28;20042;-81
2021/12/27 02:03:03;;;;;;;3.60;2.40;;;5.00;39.20;;;;;;5011351;28;20072;-81
2021/12/27 02:05:29;;;;;;;2.65;2.22;;;5.00;39.10;;;;;;5009791;28;20072;-80
2021/12/27 02:07:55;;;;;;;3.22;2.28;;;5.00;39.60;;;;;;4993181;28;20551;-82
2021/12/27 02:10:21;;;;;;;3.75;2.13;;;5.00;39.60;;;;;;5013263;28;20096;-81
2021/12/27 02:12:47;;;;;;;2.63;2.30;;;5.00;39.00;;;;;;5010731;28;20120;-81
2021/12/27 02:15:14;;;;;;;2.85;2.30;;;4.90;38.90;;;;;;5011104;28;20089;-81
2021/12/27 02:17:42;;;;;;;2.80;2.00;;;4.90;39.00;;;;;;4992332;28;20655;-80
2021/12/27 02:20:16;;;;;;;3.20;2.00;;;4.90;39.00;;;;;;5010432;28;20487;-81
2021/12/27 02:22:43;;;;;;;3.13;2.55;;;4.90;39.00;;;;;;5010866;28;20029;-81
2021/12/27 02:25:10;;;;;;;2.53;2.20;;;4.90;39.00;;;;;;5009459;28;20042;-80
2021/12/27 02:27:37;;;;;;;2.75;2.20;;;4.90;39.10;;;;;;4996957;28;20061;-80
2021/12/27 02:30:08;;;;;;;3.13;2.40;;;4.80;39.00;;;;;;5011057;28;20037;-81
2021/12/27 02:32:48;;;;;;;2.25;2.00;;;4.80;39.10;;;;;;4996392;28;20543;-82
2021/12/27 02:35:17;;;;;;;2.67;2.20;;;4.80;39.10;;;;;;5010440;28;20121;-80
2021/12/27 02:37:44;;;;;;;3.10;2.40;;;4.80;39.10;;;;;;5013514;28;20033;-80
2021/12/27 02:40:11;;;;;;;3.78;2.60;;;4.80;39.10;;;;;;5007591;28;20026;-81
2021/12/27 02:42:57;;;;;;;3.33;2.35;;;4.90;39.10;;;;;;4992190;28;20026;-81
2021/12/27 02:45:23;;;;;;;4.45;2.53;;;4.90;39.00;;;;;;5012335;28;20043;-81
2021/12/27 02:47:49;;;;;;;3.53;2.40;;;4.90;39.10;;;;;;4991129;28;20073;-81
2021/12/27 02:50:16;;;;;;;2.65;2.28;;;4.90;39.00;;;;;;4990266;28;20137;-81
2021/12/27 02:52:42;;;;;;;3.78;2.42;;;5.00;38.90;;;;;;5013604;28;20041;-81
2021/12/27 02:55:09;;;;;;;3.13;2.30;;;5.00;39.00;;;;;;5012277;28;20030;-80
2021/12/27 02:57:35;;;;;;;3.72;2.60;;;5.00;39.00;;;;;;4993691;28;20032;-81
2021/12/27 03:00:02;;;;;;;4.93;3.00;;;5.00;38.90;;;;;;5016872;28;20100;-80
2021/12/27 03:02:28;;;;;;;3.38;2.53;;;5.00;38.90;;;;;;4997731;28;20720;-81
2021/12/27 03:04:54;;;;;;;3.38;2.45;;;5.00;38.90;;;;;;4993451;28;20037;-81
2021/12/27 03:07:20;;;;;;;4.70;2.80;;;5.00;38.90;;;;;;4993685;28;20085;-83
2021/12/27 03:09:46;;;;;;;3.05;2.42;;;4.90;39.00;;;;;;4995749;28;20064;-81
2021/12/27 03:12:12;;;;;;;2.80;2.15;;;4.90;39.00;;;;;;5009942;28;21004;-82
2021/12/27 03:14:39;;;;;;;3.35;2.70;;;4.90;39.00;;;;;;5011795;28;20128;-81
2021/12/27 03:17:06;;;;;;;4.85;3.03;;;4.90;39.10;;;;;;4977229;28;20030;-82
2021/12/27 03:19:31;;;;;;;4.07;2.72;;;4.90;39.10;;;;;;4989787;28;20657;-79
2021/12/27 03:21:57;;;;;;;3.10;2.28;;;4.90;39.10;;;;;;5011117;28;20037;-80
2021/12/27 03:24:23;;;;;;;4.35;2.50;;;4.90;39.10;;;;;;4994861;28;20037;-79
2021/12/27 03:26:49;;;;;;;4.07;2.55;;;5.00;39.20;;;;;;4994219;28;20037;-79
2021/12/27 03:29:15;;;;;;;4.38;2.40;;;5.00;39.20;;;;;;4997567;28;20041;-79
2021/12/27 03:31:42;;;;;;;3.78;2.92;;;5.00;39.10;;;;;;4992735;28;20089;-91
2021/12/27 03:34:08;;;;;;;4.18;2.75;;;5.10;39.10;;;;;;4979248;28;20034;-80
2021/12/27 03:36:38;;;;;;;4.07;2.30;;;5.20;41.50;;;;;;5009060;28;20124;-83
2021/12/27 03:39:09;;;;;;;2.85;2.40;;;5.30;43.00;;;;;;5012178;28;20399;-81
2021/12/27 03:41:36;;;;;;;3.25;2.40;;;5.40;42.30;;;;;;5011449;28;20041;-81
2021/12/27 03:44:03;;;;;;;4.07;2.78;;;5.40;41.40;;;;;;4995787;28;20045;-81
2021/12/27 03:46:30;;;;;;;3.03;2.40;;;5.40;40.70;;;;;;4994709;28;20983;-80
2021/12/27 03:48:56;;;;;;;3.33;2.40;;;5.40;40.30;;;;;;4997120;28;20038;-81
2021/12/27 03:51:22;;;;;;;4.30;2.35;;;5.50;40.20;;;;;;4998331;28;20054;-81
2021/12/27 03:53:48;;;;;;;4.43;2.30;;;5.20;39.80;;;;;;5013316;28;20138;-79
2021/12/27 03:56:14;;;;;;;3.65;2.50;;;5.20;40.00;;;;;;5011948;28;20037;-81
2021/12/27 03:58:54;;;;;;;3.67;2.63;;;5.20;40.00;;;;;;5020388;28;20373;-81
2021/12/27 04:01:21;;;;;;;2.83;2.20;;;5.30;39.60;;;;;;5016090;28;20113;-80
2021/12/27 04:03:53;;;;;;;3.92;2.58;;;5.20;39.50;;;;;;5014322;28;20034;-79
2021/12/27 04:06:21;;;;;;;4.00;2.67;;;5.30;39.60;;;;;;5011219;28;20583;-78
2021/12/27 04:08:48;;;;;;;3.17;2.45;;;5.40;39.30;;;;;;5010134;28;20465;-78
2021/12/27 04:11:14;;;;;;;3.35;2.58;;;5.40;39.40;;;;;;5011844;28;20453;-77
2021/12/27 04:13:41;;;;;;;3.28;2.80;;;5.30;39.30;;;;;;5012881;28;20373;-79
2021/12/27 04:16:07;;;;;;;4.55;2.92;;;5.40;39.50;;;;;;5010566;28;20117;-78
2021/12/27 04:18:33;;;;;;;3.65;2.67;;;5.60;39.10;;;;;;4994241;28;20493;-79
2021/12/27 04:20:59;;;;;;;4.72;2.45;;;5.70;39.00;;;;;;4997597;28;20037;-78
2021/12/27 04:23:25;;;;;;;3.58;2.60;;;5.70;38.80;;;;;;5010091;28;20847;-76
2021/12/27 04:25:51;;;;;;;3.28;2.33;;;5.80;38.90;;;;;;4982227;28;20034;-77
2021/12/27 04:28:19;;;;;;;4.28;2.30;;;5.80;38.50;;;;;;5015045;28;20040;-77
2021/12/27 04:30:45;;;;;;;3.75;2.80;;;5.80;38.60;;;;;;5008665;28;20126;-78
2021/12/27 04:33:11;;;;;;;3.47;2.70;;;5.70;38.80;;;;;;5010623;28;20121;-78
2021/12/27 04:35:38;;;;;;;4.15;3.00;;;5.70;38.90;;;;;;4993387;28;20085;-81
2021/12/27 04:38:04;;;;;;;5.57;3.17;;;5.60;38.70;;;;;;5013942;28;20092;-81
2021/12/27 04:40:35;;;;;;;3.83;2.70;;;5.70;39.00;;;;;;5013520;28;20030;-81
2021/12/27 04:43:07;;;;;;;3.38;2.60;;;5.70;38.90;;;;;;5011869;28;20030;-78
2021/12/27 04:45:33;;;;;;;3.38;2.55;;;5.60;38.40;;;;;;5011658;28;20412;-80
2021/12/27 04:47:59;;;;;;;3.90;2.80;;;5.60;38.70;;;;;;5010224;28;20041;-81
2021/12/27 04:50:25;;;;;;;3.83;3.00;;;5.90;38.50;;;;;;5010416;28;20038;-79
2021/12/27 04:52:53;;;;;;;4.68;3.13;;;5.80;38.30;;;;;;5015037;28;20029;-79
2021/12/27 04:55:24;;;;;;;4.25;2.70;;;5.80;38.40;;;;;;5009864;28;20038;-80
2021/12/27 04:57:50;;;;;;;5.38;3.00;;;5.80;38.40;;;;;;4999989;28;20029;-80
2021/12/27 05:00:17;;;;;;;3.88;3.15;;;5.80;38.20;;;;;;5011533;28;20058;-81
2021/12/27 05:02:43;;;;;;;4.32;2.78;;;5.70;38.40;;;;;;4995567;28;20033;-79
2021/12/27 05:05:09;;;;;;;3.63;3.00;;;5.80;38.20;;;;;;5013651;28;20029;-78
2021/12/27 05:07:36;;;;;;;5.05;3.20;;;5.80;38.20;;;;;;4991906;28;20034;-81
2021/12/27 05:10:02;;;;;;;3.55;2.83;;;5.80;38.10;;;;;;5017101;28;20034;-81
2021/12/27 05:12:28;;;;;;;3.22;2.85;;;5.70;38.30;;;;;;5012000;28;21215;-77
2021/12/27 05:14:54;;;;;;;5.18;3.10;;;6.00;38.30;;;;;;4994293;28;20093;-79
2021/12/27 05:17:20;;;;;;;4.78;3.10;;;6.00;38.10;;;;;;5018879;28;20496;-80
2021/12/27 05:19:46;;;;;;;3.97;2.80;;;6.00;38.20;;;;;;4984174;28;20157;-81
2021/12/27 05:22:12;;;;;;;4.10;3.03;;;6.00;38.00;;;;;;5000198;28;20041;-80
2021/12/27 05:24:37;;;;;;;3.55;2.80;;;6.10;38.10;;;;;;5000486;28;20184;-78
2021/12/27 05:27:04;;;;;;;4.40;3.00;;;6.00;37.90;;;;;;5020147;28;20132;-78
2021/12/27 05:29:30;;;;;;;5.38;3.22;;;6.10;38.10;;;;;;5004342;28;20622;-79
2021/12/27 05:32:01;;;;;;;5.20;3.17;;;6.10;38.00;;;;;;4998669;28;20215;-78
2021/12/27 05:34:28;;;;;;;4.05;2.67;;;6.00;37.90;;;;;;5016638;28;20030;-77
2021/12/27 05:36:55;;;;;;;4.97;3.20;;;6.00;38.00;;;;;;5017985;28;20504;-78
2021/12/27 05:39:22;;;;;;;4.38;2.90;;;6.00;37.90;;;;;;5017094;28;20038;-78
2021/12/27 05:41:48;;;;;;;3.85;3.20;;;5.90;38.00;;;;;;5020204;28;20029;-76
2021/12/27 05:44:15;;;;;;;3.70;2.70;;;5.90;38.00;;;;;;5004327;28;20040;-78
2021/12/27 05:46:41;;;;;;;5.10;2.85;;;5.90;38.00;;;;;;4979968;28;20057;-77
2021/12/27 05:49:07;;;;;;;4.28;2.97;;;5.80;37.90;;;;;;5014818;28;20041;-77
2021/12/27 05:51:36;;;;;;;3.85;2.67;;;5.90;37.90;;;;;;5010275;28;20097;-77
2021/12/27 05:54:05;;;;;;;3.72;2.92;;;5.90;37.80;;;;;;4990643;28;20069;-77
2021/12/27 05:56:31;;;;;;;6.35;3.13;;;5.90;37.80;;;;;;5007570;28;20041;-77
2021/12/27 05:58:57;;;;;;;4.43;3.00;;;6.00;37.80;;;;;;4972294;28;20401;-76
2021/12/27 06:01:23;;;;;;;4.22;3.03;;;6.00;37.80;;;;;;4993962;28;20026;-77
2021/12/27 06:03:48;;;;;;;3.47;2.88;;;6.00;37.80;;;;;;5010416;28;20045;-76
2021/12/27 06:06:15;;;;;;;4.63;3.42;;;6.00;37.80;;;;;;5006976;28;20038;-77
2021/12/27 06:08:41;;;;;;;5.20;2.92;;;6.00;37.80;;;;;;5008387;28;20037;-77
2021/12/27 06:11:07;;;;;;;4.20;2.95;;;6.10;37.60;;;;;;5006651;28;20520;-75
2021/12/27 06:13:33;;;;;;;4.57;3.10;;;6.10;37.60;;;;;;5007227;28;20035;-77
2021/12/27 06:15:59;;;;;;;3.92;3.05;;;6.10;37.40;;;;;;5012442;28;20034;-77
2021/12/27 06:18:25;;;;;;;4.38;3.10;;;6.10;37.50;;;;;;4994164;28;21578;-76
2021/12/27 06:20:51;;;;;;;3.67;2.70;;;5.80;37.30;;;;;;5009056;28;20057;-77
2021/12/27 06:23:17;;;;;;;4.05;2.70;;;5.30;37.70;;;;;;4976342;28;20512;-76
2021/12/27 06:25:46;;;;;;;3.97;2.80;;;4.90;38.10;;;;;;5011573;28;20096;-78
2021/12/27 06:28:12;;;;;;;4.05;2.85;;;4.80;38.50;;;;;;5008773;28;20040;-78
2021/12/27 06:30:38;;;;;;;3.67;2.65;;;4.70;38.50;;;;;;4993885;28;20114;-78
2021/12/27 06:33:06;;;;;;;2.95;2.53;;;4.60;38.40;;;;;;5009127;28;20104;-77
2021/12/27 06:35:33;;;;;;;4.35;3.05;;;4.40;38.50;;;;;;5006041;28;20829;-79
2021/12/27 06:37:59;;;;;;;5.85;2.95;;;4.40;38.90;;;;;;5008256;28;20104;-77
2021/12/27 06:40:25;;;;;;;3.13;2.60;;;4.50;38.80;;;;;;5011454;28;20137;-78
2021/12/27 06:42:50;;;;;;;4.22;2.80;;;4.60;38.70;;;;;;5011125;28;20037;-78
2021/12/27 06:45:17;;;;;;;3.28;2.42;;;4.50;38.20;;;;;;5011997;28;20034;-78
2021/12/27 06:47:43;;;;;;;3.45;2.33;;;4.70;38.60;;;;;;4990745;28;20088;-77
2021/12/27 06:50:10;;;;;;;3.47;2.85;;;4.60;38.40;;;;;;4975873;28;20496;-77
2021/12/27 06:52:37;;;;;;;5.20;2.80;;;4.60;38.40;;;;;;4991863;28;20030;-78
2021/12/27 06:55:04;;;;;;;4.10;2.95;;;4.70;38.30;;;;;;5010067;28;20033;-78
2021/12/27 06:57:30;;;;;;;3.58;3.10;;;4.70;38.30;;;;;;5007012;28;20049;-78
2021/12/27 06:59:57;;;;;;;3.85;3.05;;;4.80;38.00;;;;;;5005734;28;20038;-77
2021/12/27 07:02:23;;;;;;;4.18;3.03;;;4.80;38.20;;;;;;5006618;28;20034;-76
2021/12/27 07:04:50;;;;;;;4.93;3.28;;;4.70;38.10;;;;;;5009785;28;20516;-78
2021/12/27 07:07:16;;;;;;;5.72;2.97;;;4.60;38.10;;;;;;5009127;28;20494;-77
2021/12/27 07:09:41;;;;;;;3.40;2.47;;;4.60;38.30;;;;;;5011399;28;20029;-78
2021/12/27 07:12:08;;;;;;;4.28;2.83;;;4.60;38.20;;;;;;5008958;28;20037;-79
2021/12/27 07:14:34;;;;;;;3.47;2.72;;;4.70;38.10;;;;;;5008375;28;20084;-79
2021/12/27 07:17:00;;;;;;;3.78;3.03;;;4.70;38.00;;;;;;4991631;28;20030;-76
2021/12/27 07:19:27;;;;;;;5.57;3.13;;;4.60;38.20;;;;;;5006574;28;20544;-77
2021/12/27 07:21:53;;;;;;;4.70;3.03;;;4.80;38.10;;;;;;5010166;28;20500;-77
2021/12/27 07:24:19;;;;;;;4.32;3.30;;;4.70;38.20;;;;;;5008830;28;20038;-77
2021/12/27 07:26:45;;;;;;;4.53;2.92;;;4.90;38.20;;;;;;5007116;28;20038;-77
2021/12/27 07:29:11;;;;;;;4.20;2.72;;;5.00;37.90;;;;;;5010157;28;20113;-77
2021/12/27 07:31:37;;;;;;;4.10;3.00;;;4.50;38.10;;;;;;5008837;28;20053;-78
2021/12/27 07:34:03;;;;;;;6.45;3.22;;;4.60;38.60;;;;;;5008308;28;20514;-77
2021/12/27 07:36:29;;;;;;;3.88;2.95;;;4.70;38.30;;;;;;5008093;28;20041;-78
2021/12/27 07:38:56;;;;;;;7.13;3.40;;;4.80;38.20;;;;;;5006277;28;20200;-78
2021/12/27 07:41:22;;;;;;;5.75;3.22;;;4.90;38.10;;;;;;5011281;28;20092;-78
2021/12/27 07:43:48;;;;;;;4.88;3.08;;;4.70;38.10;;;;;;4990456;28;20042;-78
2021/12/27 07:46:14;;;;;;;5.45;3.38;;;4.70;38.20;;;;;;4995102;28;20038;-77
2021/12/27 07:48:40;;;;;;;5.28;3.30;;;4.80;38.30;;;;;;5007536;28;20140;-77
2021/12/27 07:51:06;;;;;;;4.55;3.22;;;4.90;37.90;;;;;;5007417;28;20083;-76
2021/12/27 07:53:32;;;;;;;5.28;3.50;;;4.80;38.00;;;;;;5008624;28;20038;-78
2021/12/27 07:55:58;;;;;;;6.07;3.67;;;5.00;37.80;;;;;;4974451;28;20030;-76
2021/12/27 07:58:24;;;;;;;4.90;3.65;;;4.90;37.90;;;;;;4992338;28;20113;-78
2021/12/27 08:00:50;;;;;;;5.60;3.53;;;4.80;37.90;;;;;;5005389;28;20038;-76
2021/12/27 08:03:20;;;;;;;6.10;3.85;;;4.80;38.10;;;;;;5010123;28;20038;-78
2021/12/27 08:05:47;;;;;;;5.93;3.60;;;4.80;37.80;;;;;;5005589;28;20115;-76
2021/12/27 08:08:13;;;;;;;4.70;3.40;;;4.90;37.60;;;;;;4988394;28;20038;-78
2021/12/27 08:10:39;;;;;;;4.90;3.65;;;5.00;37.90;;;;;;5008175;28;20065;-77
2021/12/27 08:13:06;;;;;;;5.30;3.90;;;4.90;37.40;;;;;;5006927;28;20539;-77
2021/12/27 08:15:32;;;;;;;5.35;3.60;;;4.80;37.70;;;;;;5005805;28;20044;-77
2021/12/27 08:17:58;;;;;;;5.55;3.72;;;4.90;37.70;;;;;;5006949;28;20428;-77
2021/12/27 08:20:24;;;;;;;6.38;3.78;;;5.00;37.60;;;;;;5010950;28;20033;-77
2021/12/27 08:22:50;;;;;;;5.47;3.70;;;5.00;37.60;;;;;;5007864;28;20022;-77
2021/12/27 08:25:17;;;;;;;5.38;3.85;;;5.00;37.40;;;;;;4991202;28;20489;-76
2021/12/27 08:27:45;;;;;;;5.45;3.60;;;5.00;37.50;;;;;;5007861;28;20564;-79
2021/12/27 08:30:11;;;;;;;4.85;3.40;;;5.00;37.50;;;;;;5005877;28;20026;-78
2021/12/27 08:32:39;;;;;;;5.68;3.20;;;5.00;37.40;;;;;;5010582;28;20100;-79
2021/12/27 08:35:06;;;;;;;4.05;3.30;;;5.20;38.40;;;;;;4996097;28;20042;-78
2021/12/27 08:37:33;;;;;;;4.43;3.10;;;5.80;42.60;;;;;;5008343;28;20121;-79
2021/12/27 08:39:59;;;;;;;5.20;3.38;;;6.20;43.30;;;;;;5010551;28;20068;-78
2021/12/27 08:42:26;;;;;;;4.47;3.28;;;6.60;42.30;;;;;;5009375;28;20341;-78
2021/12/27 08:44:52;;;;;;;4.50;3.00;;;6.80;41.00;;;;;;5013076;28;20121;-77
2021/12/27 08:47:18;;;;;;;4.28;2.95;;;7.00;40.00;;;;;;5009927;28;20041;-78
2021/12/27 08:49:45;;;;;;;4.18;3.30;;;7.20;39.30;;;;;;5010288;28;20088;-76
2021/12/27 08:52:11;;;;;;;4.10;3.35;;;7.20;38.80;;;;;;5011307;28;20091;-78
2021/12/27 08:54:38;;;;;;;4.22;2.97;;;7.20;38.40;;;;;;5009667;28;20035;-76
2021/12/27 08:57:09;;;;;;;5.63;3.88;;;7.40;38.00;;;;;;5009108;28;20176;-78
2021/12/27 08:59:36;;;;;;;4.53;3.38;;;7.40;37.80;;;;;;4981708;28;20537;-78
2021/12/27 09:02:03;;;;;;;5.32;3.53;;;7.40;37.50;;;;;;5014356;28;20160;-78
2021/12/27 09:04:29;;;;;;;4.70;3.20;;;7.40;37.40;;;;;;4991144;28;20038;-77
2021/12/27 09:06:56;;;;;;;6.15;3.70;;;7.40;37.40;;;;;;5010200;28;20045;-77
2021/12/27 09:09:22;;;;;;;4.45;3.33;;;7.50;37.30;;;;;;4995770;28;20092;-77
2021/12/27 09:11:48;;;;;;;6.30;3.35;;;7.40;37.20;;;;;;5007781;28;20030;-78
2021/12/27 09:14:14;;;;;;;5.47;3.85;;;7.40;37.10;;;;;;4993202;28;20026;-77
2021/12/27 09:16:40;;;;;;;4.68;3.53;;;7.50;37.20;;;;;;5009081;28;20064;-77
2021/12/27 09:19:06;;;;;;;6.75;4.38;;;7.40;37.20;;;;;;4994938;28;20038;-76
2021/12/27 09:21:33;;;;;;;5.63;3.40;;;7.30;37.20;;;;;;5010271;28;20562;-77
2021/12/27 09:23:59;;;;;;;8.18;4.18;;;7.40;37.30;;;;;;5008672;28;20037;-76
2021/12/27 09:26:25;;;;;;;5.43;3.95;;;7.30;37.30;;;;;;5010915;28;20092;-78
2021/12/27 09:28:51;;;;;;;5.30;3.60;;;7.30;37.30;;;;;;5010228;28;20038;-76
2021/12/27 09:31:17;;;;;;;5.63;4.10;;;7.30;37.40;;;;;;4988009;28;20042;-77
2021/12/27 09:33:42;;;;;;;6.35;4.07;;;7.30;37.50;;;;;;4991313;28;20027;-77
2021/12/27 09:36:08;;;;;;;5.10;3.85;;;7.30;37.40;;;;;;4990259;28;20045;-77
2021/12/27 09:38:34;;;;;;;4.53;3.28;;;7.30;37.50;;;;;;4985787;28;20193;-76
2021/12/27 09:41:00;;;;;;;5.72;4.05;;;7.30;37.50;;;;;;4990239;28;20077;-77
2021/12/27 09:43:27;;;;;;;5.35;4.10;;;7.40;37.60;;;;;;4991735;28;20445;-77
2021/12/27 09:45:53;;;;;;;5.93;4.40;;;7.40;37.40;;;;;;4988627;28;20038;-78
2021/12/27 09:48:19;;;;;;;6.78;4.03;;;7.50;37.40;;;;;;4997565;28;20106;-78
2021/12/27 09:50:52;;;;;;;5.40;3.65;;;7.50;37.40;;;;;;4992069;28;20157;-78
2021/12/27 09:53:18;;;;;;;5.60;3.88;;;7.50;37.30;;;;;;4993339;28;20034;-78
2021/12/27 09:55:44;;;;;;;5.45;3.97;;;7.50;37.30;;;;;;4987251;28;20030;-79
2021/12/27 09:58:10;;;;;;;7.05;3.72;;;7.50;37.30;;;;;;4977701;28;20424;-76
2021/12/27 10:00:36;;;;;;;5.10;3.90;;;7.50;37.30;;;;;;4989140;28;20044;-76
2021/12/27 10:03:02;;;;;;;5.65;4.10;;;7.50;37.20;;;;;;4988741;28;20043;-77
2021/12/27 10:05:30;;;;;;;8.02;4.82;;;7.40;37.40;;;;;;4983567;28;20429;-76
2021/12/27 10:07:57;;;;;;;8.30;3.50;;;7.40;37.40;;;;;;4992861;28;20043;-78
2021/12/27 10:10:23;;;;;;;6.72;4.38;;;7.40;37.60;;;;;;4983105;28;20031;-78
2021/12/27 10:12:50;;;;;;;7.97;4.38;;;7.40;38.50;;;;;;4983596;28;20823;-78
2021/12/27 10:15:22;;;;;;;6.35;4.00;;;7.40;38.30;;;;;;4988296;28;20483;-77
2021/12/27 10:17:48;;;;;;;6.25;4.60;;;7.40;38.10;;;;;;4990407;28;20081;-77
2021/12/27 10:20:16;;;;;;;8.40;4.57;;;7.30;37.80;;;;;;4991052;28;20070;-77
2021/12/27 10:22:45;;;;;;;6.32;4.57;;;7.30;37.80;;;;;;4985979;28;20033;-79
2021/12/27 10:25:14;;;;;;;7.47;4.75;;;7.40;37.70;;;;;;4978009;28;20026;-77
2021/12/27 10:27:41;;;;;;;7.47;4.00;;;7.30;37.60;;;;;;4992511;28;20034;-77
2021/12/27 10:30:19;;;;;;;7.35;4.57;;;7.30;37.60;;;;;;4988086;28;20052;-75
2021/12/27 10:33:09;;;;;;;7.18;4.68;;;7.30;37.50;;;;;;4988592;28;20053;-76
2021/12/27 10:35:37;;;;;;;7.38;4.72;;;7.30;37.70;;;;;;4986576;28;20030;-77
2021/12/27 10:38:19;;;;;;;5.90;4.40;;;7.30;37.70;;;;;;4992608;28;20060;-78
2021/12/27 10:41:09;;;;;;;6.40;4.72;;;7.30;37.70;;;;;;4988504;28;20038;-76
2021/12/27 10:43:42;;;;;;;8.70;4.80;;;7.40;37.60;;;;;;4985923;28;20026;-78
2021/12/27 10:46:17;;;;;;;5.72;4.50;;;7.40;37.50;;;;;;4989058;28;20054;-78
2021/12/27 10:48:46;;;;;;;6.68;4.63;;;7.40;37.50;;;;;;4989516;28;20038;-77
2021/12/27 10:51:12;;;;;;;6.35;4.28;;;7.40;37.50;;;;;;4978483;28;20137;-77
2021/12/27 10:53:45;;;;;;;7.35;4.70;;;7.40;37.50;;;;;;4989252;28;20038;-77
2021/12/27 10:56:11;;;;;;;7.35;4.30;;;7.40;37.60;;;;;;4976526;28;20026;-78
2021/12/27 10:58:44;;;;;;;6.50;4.00;;;7.30;37.50;;;;;;4987025;28;20038;-78
2021/12/27 11:01:18;;;;;;;7.30;4.47;;;7.40;37.40;;;;;;4987909;28;20041;-76
2021/12/27 11:03:45;;;;;;;7.68;4.13;;;7.30;37.50;;;;;;4987088;28;20030;-77
2021/12/27 11:06:16;;;;;;;7.10;4.30;;;7.30;37.50;;;;;;4978107;28;20535;-78
2021/12/27 11:08:44;;;;;;;6.32;4.03;;;7.30;37.50;;;;;;4987754;28;20425;-77
2021/12/27 11:11:10;;;;;;;8.68;4.50;;;7.30;37.50;;;;;;4978315;28;20046;-79
2021/12/27 11:13:36;;;;;;;5.82;4.30;;;7.30;37.50;;;;;;4989762;28;20117;-80
2021/12/27 11:16:03;;;;;;;6.70;4.15;;;7.30;37.60;;;;;;4984525;28;20035;-78
2021/12/27 11:18:29;;;;;;;6.85;4.63;;;7.30;37.60;;;;;;4986272;28;20065;-78
2021/12/27 11:21:04;;;;;;;7.18;4.57;;;7.20;37.70;;;;;;4989169;28;20046;-79
2021/12/27 11:23:30;;;;;;;6.85;4.47;;;7.20;37.80;;;;;;4986403;28;20098;-78
2021/12/27 11:26:08;;;;;;;6.00;4.15;;;7.20;37.80;;;;;;4985219;28;20035;-76
2021/12/27 11:28:43;;;;;;;5.47;4.00;;;7.20;37.80;;;;;;4989579;28;20565;-77
2021/12/27 11:31:24;;;;;;;6.32;3.97;;;7.20;38.00;;;;;;4989771;28;20134;-78
2021/12/27 11:33:54;;;;;;;5.80;4.22;;;7.10;38.00;;;;;;4985841;28;20054;-78
2021/12/27 11:36:22;;;;;;;6.80;3.95;;;7.20;38.10;;;;;;4988606;28;20088;-79
2021/12/27 11:38:48;;;;;;;6.63;4.03;;;7.20;38.10;;;;;;4990746;28;20027;-78
2021/12/27 11:41:34;;;;;;;6.55;4.20;;;7.20;38.10;;;;;;4987774;28;20423;-78
2021/12/27 11:44:08;;;;;;;5.47;3.88;;;7.20;38.10;;;;;;4989698;28;20523;-78
2021/12/27 11:46:49;;;;;;;7.50;3.92;;;7.20;38.10;;;;;;4985622;28;20084;-78
2021/12/27 11:49:30;;;;;;;5.55;3.90;;;7.30;38.10;;;;;;4986907;28;20173;-78
2021/12/27 11:52:31;;;;;;;5.95;3.90;;;7.30;38.10;;;;;;4986502;28;20034;-79
2021/12/27 11:55:14;;;;;;;6.32;3.85;;;7.30;38.10;;;;;;4989021;28;20035;-79
2021/12/27 11:57:43;;;;;;;4.90;3.63;;;7.30;38.10;;;;;;4989437;28;20029;-78
2021/12/27 12:00:33;;;;;;;6.43;3.70;;;7.30;38.10;;;;;;4979587;28;20238;-78
2021/12/27 12:03:01;;;;;;;5.95;4.43;;;7.30;38.10;;;;;;4976372;28;20050;-78
2021/12/27 12:05:42;;;;;;;7.10;4.07;;;7.20;38.10;;;;;;4987185;28;20034;-77
2021/12/27 12:08:19;;;;;;;4.97;3.25;;;7.20;38.10;;;;;;4992586;28;20452;-80
2021/12/27 12:11:00;;;;;;;5.40;3.67;;;7.20;38.20;;;;;;4993245;28;20045;-79
2021/12/27 12:13:36;;;;;;;8.75;3.78;;;7.10;38.30;;;;;;4992058;28;20046;-78
2021/12/27 12:16:02;;;;;;;6.60;3.92;;;7.10;38.20;;;;;;4990649;28;20041;-79
2021/12/27 12:18:30;;;;;;;5.78;4.40;;;7.10;38.30;;;;;;4990858;28;20047;-78
2021/12/27 12:20:56;;;;;;;7.38;3.88;;;7.10;38.30;;;;;;4992094;28;20031;-79
2021/12/27 12:23:22;;;;;;;6.72;4.00;;;7.10;38.40;;;;;;4992201;28;20069;-77
2021/12/27 12:25:57;;;;;;;5.45;3.97;;;7.00;38.40;;;;;;4990060;28;20038;-78
2021/12/27 12:28:23;;;;;;;6.20;3.97;;;7.00;38.60;;;;;;4992092;28;20030;-79
2021/12/27 12:30:51;;;;;;;4.65;3.83;;;7.00;38.50;;;;;;4988216;28;20045;-78
2021/12/27 12:33:19;;;;;;;5.05;3.95;;;7.00;38.50;;;;;;4981539;28;20117;-79
2021/12/27 12:35:49;;;;;;;7.10;3.95;;;7.10;38.60;;;;;;4995899;28;20046;-79
2021/12/27 12:38:35;;;;;;;5.90;3.80;;;7.10;38.60;;;;;;4996025;28;20033;-78
2021/12/27 12:41:11;;;;;;;6.22;4.15;;;7.10;38.50;;;;;;4981120;28;20263;-81
2021/12/27 12:43:42;;;;;;;;;;;7.10;38.40;;;;;;5011035;28;20088;-79
2021/12/27 12:46:18;;;;;;;9.45;4.90;;;7.10;38.40;;;;;;4994411;28;19961;-79
2021/12/27 12:48:56;;;;;;;;;;;7.20;38.40;;;;;;4992335;28;20034;-78
2021/12/27 12:51:32;;;;;;;8.02;4.60;;;7.10;38.50;;;;;;5011807;28;19913;-79
2021/12/27 12:53:58;;;;;;;7.35;4.75;;;7.10;38.40;;;;;;4991909;28;20036;-80
2021/12/27 12:56:29;;;;;;;7.95;4.45;;;7.10;38.40;;;;;;4996638;28;20120;-79
2021/12/27 12:58:55;;;;;;;7.28;4.15;;;7.10;38.40;;;;;;4995982;28;20301;-77
2021/12/27 13:01:21;;;;;;;7.07;4.70;;;7.10;38.40;;;;;;4993120;28;20343;-77
2021/12/27 13:03:47;;;;;;;7.65;4.90;;;7.00;38.40;;;;;;5009435;28;20500;-77
2021/12/27 13:06:13;;;;;;;7.32;5.00;;;7.00;38.50;;;;;;5010632;28;20033;-77